sensor_id;sensor_type;location;lat;lon;timestamp;pressure;altitude;pressure_sealevel;temperature;humidity
51053;BME280;37093;37.716;-122.060;2023-02-17T00:01:19;100441.97;;;18.45;18.40
51053;BME280;37093;37.716;-122.060;2023-02-17T00:03:50;100447.41;;;18.00;19.13
51053;BME280;37093;37.716;-122.060;2023-02-17T00:06:24;100451.23;;;17.65;18.78
51053;BME280;37093;37.716;-122.060;2023-02-17T00:08:53;100442.87;;;18.19;16.06
51053;BME280;37093;37.716;-122.060;2023-02-17T00:11:22;100438.81;;;18.43;15.35
51053;BME280;37093;37.716;-122.060;2023-02-17T00:13:51;100438.18;;;18.19;15.69
51053;BME280;37093;37.716;-122.060;2023-02-17T00:16:22;100438.40;;;18.30;15.02
51053;BME280;37093;37.716;-122.060;2023-02-17T00:18:53;100432.82;;;18.16;15.95
51053;BME280;37093;37.716;-122.060;2023-02-17T00:21:24;100428.91;;;18.21;15.91
51053;BME280;37093;37.716;-122.060;2023-02-17T00:23:55;100431.28;;;18.44;15.73
51053;BME280;37093;37.716;-122.060;2023-02-17T00:26:23;100431.57;;;17.95;17.12
51053;BME280;37093;37.716;-122.060;2023-02-17T00:28:52;100436.05;;;18.12;17.64
51053;BME280;37093;37.716;-122.060;2023-02-17T00:31:22;100434.53;;;17.72;18.52
51053;BME280;37093;37.716;-122.060;2023-02-17T00:33:53;100438.07;;;17.64;18.74
51053;BME280;37093;37.716;-122.060;2023-02-17T00:36:24;100436.40;;;17.34;19.59
51053;BME280;37093;37.716;-122.060;2023-02-17T00:38:54;100438.77;;;17.20;19.82
51053;BME280;37093;37.716;-122.060;2023-02-17T00:41:24;100438.06;;;17.26;19.92
51053;BME280;37093;37.716;-122.060;2023-02-17T00:43:53;100437.37;;;17.08;19.83
51053;BME280;37093;37.716;-122.060;2023-02-17T00:46:21;100434.81;;;17.35;20.42
51053;BME280;37093;37.716;-122.060;2023-02-17T00:48:50;100432.54;;;17.38;19.82
51053;BME280;37093;37.716;-122.060;2023-02-17T00:51:19;100428.52;;;17.77;19.73
51053;BME280;37093;37.716;-122.060;2023-02-17T00:53:48;100431.17;;;18.11;19.77
51053;BME280;37093;37.716;-122.060;2023-02-17T00:56:16;100429.07;;;17.91;19.61
51053;BME280;37093;37.716;-122.060;2023-02-17T00:58:45;100433.29;;;18.10;19.61
51053;BME280;37093;37.716;-122.060;2023-02-17T01:01:13;100429.24;;;17.96;19.83
51053;BME280;37093;37.716;-122.060;2023-02-17T01:03:42;100434.73;;;17.59;20.32
51053;BME280;37093;37.716;-122.060;2023-02-17T01:06:17;100429.40;;;17.19;20.50
51053;BME280;37093;37.716;-122.060;2023-02-17T01:08:48;100428.30;;;17.11;21.03
51053;BME280;37093;37.716;-122.060;2023-02-17T01:11:18;100429.97;;;17.01;21.26
51053;BME280;37093;37.716;-122.060;2023-02-17T01:13:46;100431.88;;;17.08;21.06
51053;BME280;37093;37.716;-122.060;2023-02-17T01:16:18;100430.93;;;17.37;21.02
51053;BME280;37093;37.716;-122.060;2023-02-17T01:18:47;100434.58;;;17.42;21.21
51053;BME280;37093;37.716;-122.060;2023-02-17T01:21:17;100430.68;;;17.03;21.48
51053;BME280;37093;37.716;-122.060;2023-02-17T01:23:47;100427.21;;;17.32;21.44
51053;BME280;37093;37.716;-122.060;2023-02-17T01:26:19;100431.71;;;16.89;22.02
51053;BME280;37093;37.716;-122.060;2023-02-17T01:28:48;100430.86;;;17.19;21.70
51053;BME280;37093;37.716;-122.060;2023-02-17T01:31:18;100426.21;;;17.42;21.73
51053;BME280;37093;37.716;-122.060;2023-02-17T01:33:47;100425.91;;;17.06;21.88
51053;BME280;37093;37.716;-122.060;2023-02-17T01:36:17;100430.34;;;17.08;21.25
51053;BME280;37093;37.716;-122.060;2023-02-17T01:38:47;100435.80;;;16.74;22.05
51053;BME280;37093;37.716;-122.060;2023-02-17T01:41:18;100433.09;;;16.59;21.95
51053;BME280;37093;37.716;-122.060;2023-02-17T01:44:08;100431.26;;;16.98;21.60
51053;BME280;37093;37.716;-122.060;2023-02-17T01:46:38;100427.49;;;17.05;21.78
51053;BME280;37093;37.716;-122.060;2023-02-17T01:49:18;100425.13;;;17.16;22.13
51053;BME280;37093;37.716;-122.060;2023-02-17T01:51:51;100432.88;;;16.94;22.32
51053;BME280;37093;37.716;-122.060;2023-02-17T01:54:25;100438.96;;;17.05;23.21
51053;BME280;37093;37.716;-122.060;2023-02-17T01:56:57;100436.12;;;17.17;22.67
51053;BME280;37093;37.716;-122.060;2023-02-17T01:59:26;100431.58;;;16.96;22.75
51053;BME280;37093;37.716;-122.060;2023-02-17T02:01:59;100438.62;;;17.33;22.42
51053;BME280;37093;37.716;-122.060;2023-02-17T02:04:32;100439.17;;;16.84;22.81
51053;BME280;37093;37.716;-122.060;2023-02-17T02:07:02;100434.43;;;17.07;22.30
51053;BME280;37093;37.716;-122.060;2023-02-17T02:09:37;100439.11;;;17.19;21.84
51053;BME280;37093;37.716;-122.060;2023-02-17T02:12:17;100441.74;;;17.03;22.23
51053;BME280;37093;37.716;-122.060;2023-02-17T02:14:47;100441.23;;;17.06;22.49
51053;BME280;37093;37.716;-122.060;2023-02-17T02:17:26;100439.90;;;17.08;22.26
51053;BME280;37093;37.716;-122.060;2023-02-17T02:20:14;100436.86;;;16.82;22.80
51053;BME280;37093;37.716;-122.060;2023-02-17T02:23:08;100443.03;;;17.01;21.65
51053;BME280;37093;37.716;-122.060;2023-02-17T02:26:30;100450.98;;;16.72;22.37
51053;BME280;37093;37.716;-122.060;2023-02-17T02:29:24;100446.73;;;16.35;22.72
51053;BME280;37093;37.716;-122.060;2023-02-17T02:32:05;100445.81;;;16.32;23.93
51053;BME280;37093;37.716;-122.060;2023-02-17T02:34:40;100445.45;;;15.96;24.22
51053;BME280;37093;37.716;-122.060;2023-02-17T02:37:14;100443.74;;;15.87;24.22
51053;BME280;37093;37.716;-122.060;2023-02-17T02:39:48;100445.86;;;16.00;23.71
51053;BME280;37093;37.716;-122.060;2023-02-17T02:42:22;100446.46;;;16.05;23.74
51053;BME280;37093;37.716;-122.060;2023-02-17T02:44:51;100445.67;;;16.09;23.77
51053;BME280;37093;37.716;-122.060;2023-02-17T02:47:53;100440.23;;;16.23;24.52
51053;BME280;37093;37.716;-122.060;2023-02-17T02:50:27;100438.93;;;16.22;23.60
51053;BME280;37093;37.716;-122.060;2023-02-17T02:53:15;100441.06;;;16.20;24.10
51053;BME280;37093;37.716;-122.060;2023-02-17T02:55:52;100445.91;;;16.08;24.09
51053;BME280;37093;37.716;-122.060;2023-02-17T02:58:26;100450.60;;;16.21;24.45
51053;BME280;37093;37.716;-122.060;2023-02-17T03:01:01;100450.21;;;15.99;24.93
51053;BME280;37093;37.716;-122.060;2023-02-17T03:03:38;100447.75;;;15.70;25.06
51053;BME280;37093;37.716;-122.060;2023-02-17T03:06:14;100446.78;;;15.98;24.74
51053;BME280;37093;37.716;-122.060;2023-02-17T03:08:47;100448.37;;;15.61;24.73
51053;BME280;37093;37.716;-122.060;2023-02-17T03:11:22;100448.78;;;15.67;25.11
51053;BME280;37093;37.716;-122.060;2023-02-17T03:13:51;100447.34;;;15.93;24.45
51053;BME280;37093;37.716;-122.060;2023-02-17T03:16:19;100448.94;;;15.65;24.85
51053;BME280;37093;37.716;-122.060;2023-02-17T03:18:48;100445.38;;;15.59;25.37
51053;BME280;37093;37.716;-122.060;2023-02-17T03:21:17;100448.05;;;15.76;25.55
51053;BME280;37093;37.716;-122.060;2023-02-17T03:23:46;100446.73;;;15.74;26.16
51053;BME280;37093;37.716;-122.060;2023-02-17T03:26:14;100448.59;;;15.34;26.54
51053;BME280;37093;37.716;-122.060;2023-02-17T03:28:43;100443.97;;;15.01;26.37
51053;BME280;37093;37.716;-122.060;2023-02-17T03:31:12;100444.52;;;14.78;26.92
51053;BME280;37093;37.716;-122.060;2023-02-17T03:33:41;100445.83;;;14.60;27.45
51053;BME280;37093;37.716;-122.060;2023-02-17T03:36:09;100443.73;;;14.62;27.90
51053;BME280;37093;37.716;-122.060;2023-02-17T03:38:38;100440.88;;;14.53;28.17
51053;BME280;37093;37.716;-122.060;2023-02-17T03:41:06;100441.77;;;14.36;28.59
51053;BME280;37093;37.716;-122.060;2023-02-17T03:43:35;100444.66;;;14.46;28.38
51053;BME280;37093;37.716;-122.060;2023-02-17T03:46:04;100445.43;;;14.40;28.65
51053;BME280;37093;37.716;-122.060;2023-02-17T03:48:36;100445.25;;;14.60;28.28
51053;BME280;37093;37.716;-122.060;2023-02-17T03:51:12;100442.92;;;14.50;27.61
51053;BME280;37093;37.716;-122.060;2023-02-17T03:53:41;100445.99;;;14.93;27.62
51053;BME280;37093;37.716;-122.060;2023-02-17T03:56:11;100441.50;;;14.47;27.92
51053;BME280;37093;37.716;-122.060;2023-02-17T03:58:40;100437.80;;;14.83;27.20
51053;BME280;37093;37.716;-122.060;2023-02-17T04:01:10;100438.45;;;15.08;27.19
51053;BME280;37093;37.716;-122.060;2023-02-17T04:03:39;100436.28;;;14.58;27.11
51053;BME280;37093;37.716;-122.060;2023-02-17T04:06:09;100439.11;;;14.54;27.39
51053;BME280;37093;37.716;-122.060;2023-02-17T04:08:38;100443.66;;;14.95;27.45
51053;BME280;37093;37.716;-122.060;2023-02-17T04:11:08;100446.61;;;14.38;27.96
51053;BME280;37093;37.716;-122.060;2023-02-17T04:13:37;100443.61;;;14.05;27.80
51053;BME280;37093;37.716;-122.060;2023-02-17T04:16:06;100444.82;;;14.48;27.91
51053;BME280;37093;37.716;-122.060;2023-02-17T04:18:36;100446.48;;;14.39;28.42
51053;BME280;37093;37.716;-122.060;2023-02-17T04:21:06;100445.28;;;13.92;28.36
51053;BME280;37093;37.716;-122.060;2023-02-17T04:23:35;100446.57;;;13.95;29.27
51053;BME280;37093;37.716;-122.060;2023-02-17T04:26:05;100444.84;;;13.64;27.82
51053;BME280;37093;37.716;-122.060;2023-02-17T04:28:34;100448.85;;;13.85;28.37
51053;BME280;37093;37.716;-122.060;2023-02-17T04:31:02;100448.79;;;13.79;29.10
51053;BME280;37093;37.716;-122.060;2023-02-17T04:33:31;100451.73;;;13.83;29.36
51053;BME280;37093;37.716;-122.060;2023-02-17T04:35:59;100452.51;;;13.55;29.44
51053;BME280;37093;37.716;-122.060;2023-02-17T04:38:30;100455.28;;;13.87;28.71
51053;BME280;37093;37.716;-122.060;2023-02-17T04:41:00;100455.23;;;13.92;28.59
51053;BME280;37093;37.716;-122.060;2023-02-17T04:43:29;100456.61;;;13.80;28.58
51053;BME280;37093;37.716;-122.060;2023-02-17T04:45:58;100456.90;;;14.15;27.87
51053;BME280;37093;37.716;-122.060;2023-02-17T04:48:27;100457.50;;;14.22;27.86
51053;BME280;37093;37.716;-122.060;2023-02-17T04:50:55;100458.66;;;14.25;27.76
51053;BME280;37093;37.716;-122.060;2023-02-17T04:53:24;100460.24;;;14.02;27.75
51053;BME280;37093;37.716;-122.060;2023-02-17T04:55:53;100462.05;;;13.94;27.71
51053;BME280;37093;37.716;-122.060;2023-02-17T04:58:21;100461.37;;;14.04;27.90
51053;BME280;37093;37.716;-122.060;2023-02-17T05:00:50;100464.58;;;13.84;28.64
51053;BME280;37093;37.716;-122.060;2023-02-17T05:03:19;100463.03;;;13.91;28.28
51053;BME280;37093;37.716;-122.060;2023-02-17T05:05:48;100460.32;;;13.92;28.00
51053;BME280;37093;37.716;-122.060;2023-02-17T05:08:16;100464.22;;;14.11;27.83
51053;BME280;37093;37.716;-122.060;2023-02-17T05:10:45;100465.44;;;13.76;28.40
51053;BME280;37093;37.716;-122.060;2023-02-17T05:13:14;100468.40;;;13.78;28.72
51053;BME280;37093;37.716;-122.060;2023-02-17T05:15:43;100465.19;;;13.62;28.66
51053;BME280;37093;37.716;-122.060;2023-02-17T05:18:12;100468.56;;;13.88;28.40
51053;BME280;37093;37.716;-122.060;2023-02-17T05:20:41;100472.30;;;13.68;28.26
51053;BME280;37093;37.716;-122.060;2023-02-17T05:23:10;100471.18;;;13.70;28.10
51053;BME280;37093;37.716;-122.060;2023-02-17T05:25:38;100475.81;;;13.93;28.18
51053;BME280;37093;37.716;-122.060;2023-02-17T05:28:07;100475.25;;;13.68;28.45
51053;BME280;37093;37.716;-122.060;2023-02-17T05:30:36;100476.84;;;14.07;28.07
51053;BME280;37093;37.716;-122.060;2023-02-17T05:33:04;100477.05;;;13.49;28.54
51053;BME280;37093;37.716;-122.060;2023-02-17T05:35:34;100478.45;;;13.66;28.29
51053;BME280;37093;37.716;-122.060;2023-02-17T05:38:03;100475.68;;;13.59;28.65
51053;BME280;37093;37.716;-122.060;2023-02-17T05:40:31;100477.57;;;13.56;29.25
51053;BME280;37093;37.716;-122.060;2023-02-17T05:43:00;100475.24;;;13.06;28.92
51053;BME280;37093;37.716;-122.060;2023-02-17T05:45:28;100480.04;;;13.45;28.71
51053;BME280;37093;37.716;-122.060;2023-02-17T05:47:57;100479.33;;;13.46;28.49
51053;BME280;37093;37.716;-122.060;2023-02-17T05:50:26;100482.17;;;13.15;28.69
51053;BME280;37093;37.716;-122.060;2023-02-17T05:52:54;100483.77;;;13.45;28.63
51053;BME280;37093;37.716;-122.060;2023-02-17T05:55:23;100484.79;;;13.37;28.57
51053;BME280;37093;37.716;-122.060;2023-02-17T05:57:52;100479.86;;;13.07;28.81
51053;BME280;37093;37.716;-122.060;2023-02-17T06:00:21;100480.10;;;13.31;28.80
51053;BME280;37093;37.716;-122.060;2023-02-17T06:02:49;100477.34;;;13.10;28.87
51053;BME280;37093;37.716;-122.060;2023-02-17T06:05:17;100478.77;;;13.20;29.14
51053;BME280;37093;37.716;-122.060;2023-02-17T06:07:46;100480.38;;;13.15;29.25
51053;BME280;37093;37.716;-122.060;2023-02-17T06:10:15;100479.89;;;13.01;29.50
51053;BME280;37093;37.716;-122.060;2023-02-17T06:12:43;100483.38;;;12.96;29.51
51053;BME280;37093;37.716;-122.060;2023-02-17T06:15:12;100484.52;;;12.69;29.56
51053;BME280;37093;37.716;-122.060;2023-02-17T06:17:40;100484.54;;;12.89;28.99
51053;BME280;37093;37.716;-122.060;2023-02-17T06:20:11;100486.03;;;12.65;28.65
51053;BME280;37093;37.716;-122.060;2023-02-17T06:22:41;100486.39;;;13.03;28.57
51053;BME280;37093;37.716;-122.060;2023-02-17T06:25:10;100487.07;;;13.12;28.67
51053;BME280;37093;37.716;-122.060;2023-02-17T06:27:39;100486.93;;;13.16;28.67
51053;BME280;37093;37.716;-122.060;2023-02-17T06:30:09;100487.63;;;13.10;28.71
51053;BME280;37093;37.716;-122.060;2023-02-17T06:32:38;100482.69;;;13.06;29.11
51053;BME280;37093;37.716;-122.060;2023-02-17T06:35:07;100482.78;;;13.02;28.53
51053;BME280;37093;37.716;-122.060;2023-02-17T06:37:36;100481.09;;;13.00;28.13
51053;BME280;37093;37.716;-122.060;2023-02-17T06:40:07;100481.62;;;12.98;28.46
51053;BME280;37093;37.716;-122.060;2023-02-17T06:42:36;100481.76;;;13.03;28.44
51053;BME280;37093;37.716;-122.060;2023-02-17T06:45:05;100480.37;;;12.95;28.16
51053;BME280;37093;37.716;-122.060;2023-02-17T06:47:34;100483.73;;;12.93;28.03
51053;BME280;37093;37.716;-122.060;2023-02-17T06:50:03;100482.28;;;12.90;28.83
51053;BME280;37093;37.716;-122.060;2023-02-17T06:52:31;100480.76;;;13.29;28.33
51053;BME280;37093;37.716;-122.060;2023-02-17T06:55:00;100484.31;;;12.76;28.69
51053;BME280;37093;37.716;-122.060;2023-02-17T06:57:28;100481.87;;;12.86;28.93
51053;BME280;37093;37.716;-122.060;2023-02-17T06:59:57;100482.67;;;12.78;28.71
51053;BME280;37093;37.716;-122.060;2023-02-17T07:02:26;100482.69;;;12.72;28.45
51053;BME280;37093;37.716;-122.060;2023-02-17T07:04:54;100480.97;;;12.54;28.66
51053;BME280;37093;37.716;-122.060;2023-02-17T07:07:23;100482.06;;;12.51;28.82
51053;BME280;37093;37.716;-122.060;2023-02-17T07:09:52;100482.47;;;12.46;29.07
51053;BME280;37093;37.716;-122.060;2023-02-17T07:12:20;100485.17;;;12.41;29.20
51053;BME280;37093;37.716;-122.060;2023-02-17T07:14:49;100484.21;;;12.41;28.92
51053;BME280;37093;37.716;-122.060;2023-02-17T07:17:18;100486.58;;;12.33;28.64
51053;BME280;37093;37.716;-122.060;2023-02-17T07:19:46;100487.62;;;12.28;28.69
51053;BME280;37093;37.716;-122.060;2023-02-17T07:22:15;100488.41;;;12.43;28.50
51053;BME280;37093;37.716;-122.060;2023-02-17T07:24:44;100488.64;;;12.04;28.77
51053;BME280;37093;37.716;-122.060;2023-02-17T07:27:13;100490.31;;;12.08;28.95
51053;BME280;37093;37.716;-122.060;2023-02-17T07:29:41;100490.10;;;12.34;29.21
51053;BME280;37093;37.716;-122.060;2023-02-17T07:32:10;100490.96;;;12.57;28.86
51053;BME280;37093;37.716;-122.060;2023-02-17T07:34:38;100490.43;;;12.46;29.02
51053;BME280;37093;37.716;-122.060;2023-02-17T07:37:07;100489.72;;;12.16;28.41
51053;BME280;37093;37.716;-122.060;2023-02-17T07:39:37;100487.60;;;11.88;28.36
51053;BME280;37093;37.716;-122.060;2023-02-17T07:42:05;100490.19;;;12.34;28.32
51053;BME280;37093;37.716;-122.060;2023-02-17T07:44:34;100487.92;;;12.34;27.95
51053;BME280;37093;37.716;-122.060;2023-02-17T07:47:03;100488.99;;;12.17;28.32
51053;BME280;37093;37.716;-122.060;2023-02-17T07:49:32;100492.53;;;12.16;28.71
51053;BME280;37093;37.716;-122.060;2023-02-17T07:52:00;100489.44;;;12.18;28.60
51053;BME280;37093;37.716;-122.060;2023-02-17T07:54:29;100491.65;;;12.12;28.70
51053;BME280;37093;37.716;-122.060;2023-02-17T07:56:58;100494.15;;;12.20;28.75
51053;BME280;37093;37.716;-122.060;2023-02-17T07:59:26;100493.24;;;11.99;28.54
51053;BME280;37093;37.716;-122.060;2023-02-17T08:01:17;100494.68;;;11.10;28.67
51053;BME280;37093;37.716;-122.060;2023-02-17T08:03:46;100495.49;;;11.18;27.36
51053;BME280;37093;37.716;-122.060;2023-02-17T08:06:17;100491.84;;;12.91;26.52
51053;BME280;37093;37.716;-122.060;2023-02-17T08:08:47;100494.74;;;13.45;27.16
51053;BME280;37093;37.716;-122.060;2023-02-17T08:11:16;100499.27;;;12.86;27.49
51053;BME280;37093;37.716;-122.060;2023-02-17T08:13:45;100498.30;;;12.89;28.15
51053;BME280;37093;37.716;-122.060;2023-02-17T08:16:13;100496.05;;;12.26;28.39
51053;BME280;37093;37.716;-122.060;2023-02-17T08:18:42;100499.21;;;12.00;28.63
51053;BME280;37093;37.716;-122.060;2023-02-17T08:21:10;100498.70;;;11.89;28.48
51053;BME280;37093;37.716;-122.060;2023-02-17T08:23:38;100501.92;;;11.56;29.00
51053;BME280;37093;37.716;-122.060;2023-02-17T08:26:07;100505.68;;;11.70;29.29
51053;BME280;37093;37.716;-122.060;2023-02-17T08:28:36;100506.80;;;11.91;29.85
51053;BME280;37093;37.716;-122.060;2023-02-17T08:31:04;100504.14;;;11.23;29.59
51053;BME280;37093;37.716;-122.060;2023-02-17T08:33:33;100508.41;;;11.37;29.75
51053;BME280;37093;37.716;-122.060;2023-02-17T08:36:06;100505.67;;;11.29;29.97
51053;BME280;37093;37.716;-122.060;2023-02-17T08:38:34;100502.60;;;11.23;30.27
51053;BME280;37093;37.716;-122.060;2023-02-17T08:41:12;100499.92;;;11.25;30.32
51053;BME280;37093;37.716;-122.060;2023-02-17T08:43:41;100497.38;;;11.52;29.98
51053;BME280;37093;37.716;-122.060;2023-02-17T08:46:10;100498.79;;;10.90;30.57
51053;BME280;37093;37.716;-122.060;2023-02-17T08:48:39;100497.06;;;11.12;30.33
51053;BME280;37093;37.716;-122.060;2023-02-17T08:51:07;100499.31;;;11.12;30.53
51053;BME280;37093;37.716;-122.060;2023-02-17T08:53:39;100497.39;;;11.09;30.54
51053;BME280;37093;37.716;-122.060;2023-02-17T08:56:07;100494.07;;;10.31;31.02
51053;BME280;37093;37.716;-122.060;2023-02-17T08:58:37;100492.25;;;10.83;31.01
51053;BME280;37093;37.716;-122.060;2023-02-17T09:01:05;100486.58;;;10.55;31.08
51053;BME280;37093;37.716;-122.060;2023-02-17T09:03:35;100485.73;;;10.68;30.97
51053;BME280;37093;37.716;-122.060;2023-02-17T09:06:05;100482.46;;;11.11;31.07
51053;BME280;37093;37.716;-122.060;2023-02-17T09:08:33;100479.18;;;11.28;30.93
51053;BME280;37093;37.716;-122.060;2023-02-17T09:11:02;100480.74;;;11.23;30.81
51053;BME280;37093;37.716;-122.060;2023-02-17T09:13:30;100477.86;;;10.63;32.60
51053;BME280;37093;37.716;-122.060;2023-02-17T09:15:59;100482.38;;;9.61;34.35
51053;BME280;37093;37.716;-122.060;2023-02-17T09:18:28;100486.27;;;9.18;34.71
51053;BME280;37093;37.716;-122.060;2023-02-17T09:20:56;100487.42;;;8.83;34.99
51053;BME280;37093;37.716;-122.060;2023-02-17T09:23:25;100477.56;;;9.48;34.78
51053;BME280;37093;37.716;-122.060;2023-02-17T09:26:01;100474.46;;;9.60;34.04
51053;BME280;37093;37.716;-122.060;2023-02-17T09:28:30;100469.47;;;10.38;33.32
51053;BME280;37093;37.716;-122.060;2023-02-17T09:30:59;100467.48;;;10.25;33.03
51053;BME280;37093;37.716;-122.060;2023-02-17T09:33:34;100466.12;;;10.82;32.35
51053;BME280;37093;37.716;-122.060;2023-02-17T09:36:03;100463.77;;;10.74;32.36
51053;BME280;37093;37.716;-122.060;2023-02-17T09:38:31;100464.24;;;10.94;31.77
51053;BME280;37093;37.716;-122.060;2023-02-17T09:41:07;100462.68;;;11.02;32.07
51053;BME280;37093;37.716;-122.060;2023-02-17T09:43:42;100460.89;;;10.96;32.12
51053;BME280;37093;37.716;-122.060;2023-02-17T09:46:15;100455.61;;;11.19;32.12
51053;BME280;37093;37.716;-122.060;2023-02-17T09:48:46;100450.34;;;10.96;32.48
51053;BME280;37093;37.716;-122.060;2023-02-17T09:51:21;100453.51;;;10.83;32.64
51053;BME280;37093;37.716;-122.060;2023-02-17T09:53:57;100449.33;;;10.99;32.79
51053;BME280;37093;37.716;-122.060;2023-02-17T09:56:35;100450.11;;;10.31;33.44
51053;BME280;37093;37.716;-122.060;2023-02-17T09:59:10;100451.70;;;10.36;33.56
51053;BME280;37093;37.716;-122.060;2023-02-17T10:01:42;100451.58;;;10.34;33.63
51053;BME280;37093;37.716;-122.060;2023-02-17T10:04:14;100451.89;;;10.45;32.52
51053;BME280;37093;37.716;-122.060;2023-02-17T10:06:50;100451.78;;;10.52;32.77
51053;BME280;37093;37.716;-122.060;2023-02-17T10:09:27;100454.04;;;10.63;32.35
51053;BME280;37093;37.716;-122.060;2023-02-17T10:12:02;100453.25;;;10.74;32.62
51053;BME280;37093;37.716;-122.060;2023-02-17T10:14:35;100450.26;;;10.53;32.44
51053;BME280;37093;37.716;-122.060;2023-02-17T10:17:09;100449.08;;;10.85;32.32
51053;BME280;37093;37.716;-122.060;2023-02-17T10:19:48;100442.05;;;10.59;32.29
51053;BME280;37093;37.716;-122.060;2023-02-17T10:22:20;100440.92;;;10.49;33.07
51053;BME280;37093;37.716;-122.060;2023-02-17T10:24:49;100438.84;;;10.56;32.91
51053;BME280;37093;37.716;-122.060;2023-02-17T10:27:31;100436.24;;;10.57;32.62
51053;BME280;37093;37.716;-122.060;2023-02-17T10:30:14;100433.04;;;10.19;33.59
51053;BME280;37093;37.716;-122.060;2023-02-17T10:32:52;100428.88;;;10.21;33.57
51053;BME280;37093;37.716;-122.060;2023-02-17T10:35:35;100427.20;;;10.08;33.37
51053;BME280;37093;37.716;-122.060;2023-02-17T10:38:16;100425.63;;;10.38;33.06
51053;BME280;37093;37.716;-122.060;2023-02-17T10:40:47;100420.60;;;10.59;32.92
51053;BME280;37093;37.716;-122.060;2023-02-17T10:43:23;100414.90;;;9.50;33.65
51053;BME280;37093;37.716;-122.060;2023-02-17T10:45:52;100410.83;;;9.94;33.24
51053;BME280;37093;37.716;-122.060;2023-02-17T10:48:25;100406.07;;;10.29;33.68
51053;BME280;37093;37.716;-122.060;2023-02-17T10:50:59;100405.55;;;10.14;34.04
51053;BME280;37093;37.716;-122.060;2023-02-17T10:53:31;100404.47;;;10.28;33.17
51053;BME280;37093;37.716;-122.060;2023-02-17T10:56:05;100402.80;;;10.08;33.49
51053;BME280;37093;37.716;-122.060;2023-02-17T10:58:38;100400.92;;;10.56;33.43
51053;BME280;37093;37.716;-122.060;2023-02-17T11:01:08;100400.81;;;10.51;33.19
51053;BME280;37093;37.716;-122.060;2023-02-17T11:03:36;100395.91;;;10.72;32.72
51053;BME280;37093;37.716;-122.060;2023-02-17T11:06:13;100393.51;;;10.52;31.70
51053;BME280;37093;37.716;-122.060;2023-02-17T11:08:48;100392.01;;;10.97;31.13
51053;BME280;37093;37.716;-122.060;2023-02-17T11:11:19;100383.15;;;11.01;31.34
51053;BME280;37093;37.716;-122.060;2023-02-17T11:14:07;100380.36;;;11.00;30.71
51053;BME280;37093;37.716;-122.060;2023-02-17T11:16:40;100377.33;;;10.94;30.15
51053;BME280;37093;37.716;-122.060;2023-02-17T11:19:21;100380.16;;;11.09;30.62
51053;BME280;37093;37.716;-122.060;2023-02-17T11:21:51;100378.82;;;11.14;31.56
51053;BME280;37093;37.716;-122.060;2023-02-17T11:24:21;100378.64;;;11.00;31.94
51053;BME280;37093;37.716;-122.060;2023-02-17T11:26:59;100379.96;;;10.97;31.79
51053;BME280;37093;37.716;-122.060;2023-02-17T11:29:29;100378.28;;;11.15;31.65
51053;BME280;37093;37.716;-122.060;2023-02-17T11:31:59;100379.09;;;11.48;32.01
51053;BME280;37093;37.716;-122.060;2023-02-17T11:34:30;100380.89;;;11.47;32.25
51053;BME280;37093;37.716;-122.060;2023-02-17T11:37:00;100381.56;;;11.29;31.82
51053;BME280;37093;37.716;-122.060;2023-02-17T11:39:29;100377.17;;;11.57;31.00
51053;BME280;37093;37.716;-122.060;2023-02-17T11:41:57;100374.06;;;11.83;30.68
51053;BME280;37093;37.716;-122.060;2023-02-17T11:44:26;100373.76;;;11.32;30.79
51053;BME280;37093;37.716;-122.060;2023-02-17T11:47:03;100370.83;;;11.13;31.22
51053;BME280;37093;37.716;-122.060;2023-02-17T11:49:54;100361.12;;;11.00;31.42
51053;BME280;37093;37.716;-122.060;2023-02-17T11:52:37;100364.77;;;10.47;32.35
51053;BME280;37093;37.716;-122.060;2023-02-17T11:55:18;100365.05;;;10.02;32.88
51053;BME280;37093;37.716;-122.060;2023-02-17T11:58:02;100362.80;;;10.54;33.33
51053;BME280;37093;37.716;-122.060;2023-02-17T12:00:42;100361.60;;;9.72;33.25
51053;BME280;37093;37.716;-122.060;2023-02-17T12:03:36;100362.93;;;10.29;33.14
51053;BME280;37093;37.716;-122.060;2023-02-17T12:06:13;100362.60;;;10.13;32.84
51053;BME280;37093;37.716;-122.060;2023-02-17T12:09:08;100363.35;;;10.39;32.62
51053;BME280;37093;37.716;-122.060;2023-02-17T12:11:48;100362.73;;;10.16;32.46
51053;BME280;37093;37.716;-122.060;2023-02-17T12:14:33;100360.78;;;10.08;32.68
51053;BME280;37093;37.716;-122.060;2023-02-17T12:17:15;100359.62;;;10.05;32.84
51053;BME280;37093;37.716;-122.060;2023-02-17T12:19:55;100354.72;;;10.51;32.70
51053;BME280;37093;37.716;-122.060;2023-02-17T12:22:31;100353.44;;;9.99;32.67
51053;BME280;37093;37.716;-122.060;2023-02-17T12:25:20;100352.73;;;9.94;32.66
51053;BME280;37093;37.716;-122.060;2023-02-17T12:28:00;100352.69;;;9.99;32.83
51053;BME280;37093;37.716;-122.060;2023-02-17T12:30:42;100346.57;;;9.94;32.73
51053;BME280;37093;37.716;-122.060;2023-02-17T12:33:40;100344.01;;;9.88;32.56
51053;BME280;37093;37.716;-122.060;2023-02-17T12:36:15;100339.70;;;9.88;32.61
51053;BME280;37093;37.716;-122.060;2023-02-17T12:38:47;100340.13;;;9.75;32.59
51053;BME280;37093;37.716;-122.060;2023-02-17T12:41:19;100335.38;;;10.05;32.86
51053;BME280;37093;37.716;-122.060;2023-02-17T12:43:52;100334.53;;;9.83;32.64